Time;durP1;ratioP1;P1;durP2;ratioP2;P2;SDS_P1;SDS_P2;PMS_P1;PMS_P2;Temp;Humidity;BMP_temperature;BMP_pressure;BME280_temperature;BME280_humidity;BME280_pressure;Samples;Min_cycle;Max_cycle;Signal;HPM_P1;HPM_P2
2022/07/23 00:00:18;;;;;;;7.82;4.40;;;;;;;15.19;89.22;101885.13;6156611;23;20040;-71
2022/07/23 00:02:43;;;;;;;7.35;4.68;;;;;;;15.06;89.70;101853.91;6156542;23;20009;-71
2022/07/23 00:05:10;;;;;;;7.40;4.40;;;;;;;15.07;89.69;101871.16;6156258;23;20466;-82
2022/07/23 00:07:36;;;;;;;8.77;4.82;;;;;;;14.92;90.18;101851.34;6156225;23;20377;-76
2022/07/23 00:10:02;;;;;;;8.80;4.70;;;;;;;14.98;89.33;101870.94;6129829;23;20020;-76
2022/07/23 00:12:28;;;;;;;8.35;4.57;;;;;;;14.88;89.57;101876.72;6156756;23;20073;-81
2022/07/23 00:14:53;;;;;;;7.03;4.15;;;;;;;14.86;90.03;101882.97;6156409;23;20009;-78
2022/07/23 00:17:18;;;;;;;7.22;4.68;;;;;;;14.79;89.80;101869.50;6156642;23;20006;-77
2022/07/23 00:19:44;;;;;;;6.72;4.60;;;;;;;14.69;90.15;101865.00;6156105;23;20013;-76
2022/07/23 00:22:09;;;;;;;8.27;4.07;;;;;;;14.72;90.61;101876.03;6156606;23;20005;-75
2022/07/23 00:24:35;;;;;;;6.38;4.57;;;;;;;14.56;90.43;101852.78;6156533;23;20010;-79
2022/07/23 00:27:00;;;;;;;7.25;4.20;;;;;;;14.62;90.52;101865.38;6156740;23;20039;-71
2022/07/23 00:29:26;;;;;;;10.00;4.55;;;;;;;14.55;90.71;101864.13;6156539;23;20052;-79
2022/07/23 00:31:51;;;;;;;10.38;4.63;;;;;;;14.51;91.13;101864.38;6156634;23;20376;-79
2022/07/23 00:34:17;;;;;;;7.25;4.30;;;;;;;14.41;90.92;101861.50;6156324;23;20036;-73
2022/07/23 00:36:42;;;;;;;7.53;4.47;;;;;;;14.37;91.17;101859.19;6156251;23;20037;-75
2022/07/23 00:39:07;;;;;;;11.80;4.30;;;;;;;14.42;90.96;101870.97;6156159;23;20009;-77
2022/07/23 00:41:33;;;;;;;8.02;4.88;;;;;;;14.15;91.35;101833.69;6156474;23;20008;-79
2022/07/23 00:44:16;;;;;;;7.15;5.18;;;;;;;14.37;91.84;101870.44;6156184;23;20483;-80
2022/07/23 00:46:48;;;;;;;7.82;4.85;;;;;;;14.18;91.52;101849.94;6156449;23;20009;-73
2022/07/23 00:49:13;;;;;;;;;;;;;;;14.33;89.65;101868.94;6156388;23;20021;-79
2022/07/23 00:51:39;;;;;;;7.70;5.20;;;;;;;14.25;91.81;101865.97;6155950;23;19909;-78
2022/07/23 00:54:04;;;;;;;7.68;5.13;;;;;;;14.22;92.27;101877.41;6156163;23;20005;-71
2022/07/23 00:56:30;;;;;;;11.68;5.00;;;;;;;14.17;92.01;101873.44;6156009;23;20055;-74
2022/07/23 00:58:56;;;;;;;7.78;4.68;;;;;;;14.13;92.02;101866.72;6156076;23;20005;-79
2022/07/23 01:01:22;;;;;;;8.60;4.70;;;;;;;13.96;92.16;101855.63;6156513;23;20076;-80
2022/07/23 01:03:47;;;;;;;7.75;4.85;;;;;;;14.03;92.26;101862.09;6156216;23;20416;-79
2022/07/23 01:06:13;;;;;;;10.55;4.80;;;;;;;13.89;92.95;101843.94;6156000;23;20013;-72
2022/07/23 01:08:39;;;;;;;7.88;4.75;;;;;;;13.97;93.47;101862.50;6156263;23;20471;-73
2022/07/23 01:11:05;;;;;;;8.85;5.20;;;;;;;13.93;92.83;101858.41;6156194;23;20081;-71
2022/07/23 01:13:30;;;;;;;8.23;5.20;;;;;;;13.91;93.20;101869.81;6155848;23;20392;-72
2022/07/23 01:15:55;;;;;;;12.18;4.80;;;;;;;13.87;93.23;101855.34;6155873;23;20084;-70
2022/07/23 01:18:21;;;;;;;8.13;5.50;;;;;;;13.86;93.36;101857.09;6156222;23;20010;-72
2022/07/23 01:20:46;;;;;;;10.57;5.25;;;;;;;13.78;93.15;101854.97;6155953;23;20087;-72
2022/07/23 01:23:11;;;;;;;9.82;5.78;;;;;;;13.78;93.28;101856.75;6155333;23;20001;-78
2022/07/23 01:25:37;;;;;;;7.45;5.28;;;;;;;13.74;93.84;101857.84;6156002;23;20009;-72
2022/07/23 01:28:02;;;;;;;7.32;4.97;;;;;;;13.61;94.00;101836.13;6155854;23;20008;-76
2022/07/23 01:30:28;;;;;;;9.15;5.80;;;;;;;13.58;94.07;101834.56;6155991;23;20415;-79
2022/07/23 01:32:53;;;;;;;10.43;5.57;;;;;;;13.62;93.85;101849.03;6156217;23;20011;-73
2022/07/23 01:35:18;;;;;;;9.20;5.38;;;;;;;13.62;94.04;101850.78;6155651;23;20087;-77
2022/07/23 01:37:44;;;;;;;10.18;6.03;;;;;;;13.59;93.89;101850.97;6154796;23;20064;-71
2022/07/23 01:40:09;;;;;;;11.02;5.90;;;;;;;13.55;93.94;101839.91;6155634;23;20009;-80
2022/07/23 01:42:36;;;;;;;8.65;6.28;;;;;;;13.40;94.02;101838.25;6155921;23;20009;-76
2022/07/23 01:45:01;;;;;;;10.35;5.80;;;;;;;13.44;94.59;101853.53;6155627;23;20016;-76
2022/07/23 01:47:27;;;;;;;8.85;6.10;;;;;;;13.35;94.38;101841.09;6155493;23;20001;-75
2022/07/23 01:49:52;;;;;;;8.25;6.25;;;;;;;13.39;94.42;101847.78;6155821;23;20353;-75
2022/07/23 01:52:17;;;;;;;10.68;6.32;;;;;;;13.37;94.44;101847.06;6155738;23;20010;-76
2022/07/23 01:54:43;;;;;;;9.57;5.80;;;;;;;13.34;94.23;101849.81;6155558;23;20001;-76
2022/07/23 01:57:08;;;;;;;8.52;6.22;;;;;;;13.29;94.24;101848.41;6155417;23;20005;-79
2022/07/23 01:59:35;;;;;;;11.27;7.35;;;;;;;13.28;94.12;101850.19;6155143;23;20001;-72
2022/07/23 02:02:00;;;;;;;11.50;6.70;;;;;;;13.25;94.38;101850.34;6155663;23;20024;-78
2022/07/23 02:04:25;;;;;;;10.80;6.70;;;;;;;13.23;94.59;101854.78;6155368;23;20416;-75
2022/07/23 02:06:52;;;;;;;10.52;7.55;;;;;;;13.14;94.65;101839.72;6155364;23;20013;-75
2022/07/23 02:09:17;;;;;;;9.38;6.93;;;;;;;13.10;94.67;101840.81;6155086;23;20036;-70
2022/07/23 02:11:43;;;;;;;9.50;7.13;;;;;;;13.14;94.80;101837.94;6155138;23;20002;-71
2022/07/23 02:14:08;;;;;;;9.60;6.85;;;;;;;13.07;94.23;101830.59;6154908;23;20005;-79
2022/07/23 02:16:34;;;;;;;10.18;7.53;;;;;;;13.04;94.28;101838.56;6155425;23;20013;-77
2022/07/23 02:19:00;;;;;;;11.10;7.43;;;;;;;13.00;94.85;101834.50;6155225;23;20013;-79
2022/07/23 02:21:25;;;;;;;10.35;6.95;;;;;;;12.87;94.88;101819.63;6155120;23;20001;-80
2022/07/23 02:23:50;;;;;;;12.40;7.45;;;;;;;12.96;94.92;101838.16;6155114;23;20021;-79
2022/07/23 02:26:16;;;;;;;10.57;7.38;;;;;;;12.89;94.53;101837.69;6155256;23;20017;-76
2022/07/23 02:28:41;;;;;;;11.38;7.60;;;;;;;12.88;94.75;101834.28;6155066;23;20009;-71
2022/07/23 02:31:06;;;;;;;12.15;7.55;;;;;;;12.79;94.68;101832.19;6155582;23;20001;-78
2022/07/23 02:33:32;;;;;;;10.88;7.70;;;;;;;12.86;95.29;101838.69;6155236;23;20009;-80
2022/07/23 02:35:57;;;;;;;12.05;7.55;;;;;;;12.85;95.08;101839.63;6155133;23;20017;-71
2022/07/23 02:38:23;;;;;;;12.82;8.48;;;;;;;12.74;95.44;101820.41;6155260;23;20005;-71
2022/07/23 02:40:48;;;;;;;14.10;8.27;;;;;;;12.83;94.96;101845.81;6154856;23;20009;-80
2022/07/23 02:43:13;;;;;;;10.48;8.00;;;;;;;12.81;95.14;101845.91;6152732;23;20436;-79
2022/07/23 02:45:39;;;;;;;12.13;8.65;;;;;;;12.80;95.76;101849.41;6155319;23;20032;-80
2022/07/23 02:48:04;;;;;;;13.80;7.93;;;;;;;12.73;95.27;101848.09;6154993;23;20041;-71
2022/07/23 02:50:29;;;;;;;12.43;8.30;;;;;;;12.73;95.58;101850.69;6155352;23;20001;-76
2022/07/23 02:52:55;;;;;;;10.82;8.27;;;;;;;12.71;96.06;101855.13;6155135;23;20056;-78
2022/07/23 02:55:20;;;;;;;12.02;8.30;;;;;;;12.66;95.67;101844.16;6154622;23;20020;-71
2022/07/23 02:57:45;;;;;;;10.70;7.75;;;;;;;12.58;95.33;101849.75;6155010;23;20040;-79
2022/07/23 03:00:11;;;;;;;9.23;7.68;;;;;;;12.46;95.31;101826.28;6155300;23;20084;-79
2022/07/23 03:02:37;;;;;;;11.00;7.93;;;;;;;12.54;95.33;101852.59;6155329;23;20080;-70
2022/07/23 03:05:02;;;;;;;11.30;7.85;;;;;;;12.53;95.87;101862.13;6155132;23;20091;-72
2022/07/23 03:07:28;;;;;;;9.90;7.75;;;;;;;12.48;95.29;101855.53;6154840;23;20010;-80
2022/07/23 03:09:53;;;;;;;11.82;7.30;;;;;;;12.47;95.07;101859.88;6155021;23;20006;-79
2022/07/23 03:12:18;;;;;;;11.30;9.07;;;;;;;12.36;95.73;101841.50;6154991;23;20007;-71
2022/07/23 03:14:43;;;;;;;13.07;8.95;;;;;;;12.46;95.58;101857.38;6154914;23;20001;-79
2022/07/23 03:17:09;;;;;;;11.77;8.68;;;;;;;12.44;96.03;101864.41;6154937;23;20009;-80
2022/07/23 03:19:34;;;;;;;11.05;8.60;;;;;;;12.43;95.95;101862.72;6155279;23;20439;-79
2022/07/23 03:22:00;;;;;;;13.23;8.93;;;;;;;12.43;96.11;101867.91;6154931;23;20005;-79
2022/07/23 03:24:53;;;;;;;12.32;9.52;;;;;;;12.41;96.03;101865.41;6155158;23;20069;-71
2022/07/23 03:27:11;;;;;;;15.23;9.95;;;;;;;12.38;95.91;101870.72;6156114;23;20076;-77
2022/07/23 03:29:36;;;;;;;11.85;9.77;;;;;;;12.38;96.70;101859.53;6157262;23;20005;-71
2022/07/23 03:32:03;;;;;;;13.32;9.52;;;;;;;12.25;96.24;101862.78;6157214;23;20367;-78
2022/07/23 03:34:28;;;;;;;11.85;9.85;;;;;;;12.29;96.48;101863.44;6156802;23;20002;-80
2022/07/23 03:36:53;;;;;;;11.93;9.63;;;;;;;12.24;96.25;101863.72;6156499;23;20032;-70
2022/07/23 03:39:19;;;;;;;15.02;9.43;;;;;;;12.23;96.53;101859.44;6156823;23;20056;-70
2022/07/23 03:41:44;;;;;;;11.57;9.73;;;;;;;12.22;96.69;101867.31;6156807;23;20001;-70
2022/07/23 03:44:09;;;;;;;11.50;9.27;;;;;;;12.20;96.62;101867.41;6156891;23;20012;-71
2022/07/23 03:46:35;;;;;;;12.88;9.30;;;;;;;12.16;96.60;101865.88;6156557;23;20006;-70
2022/07/23 03:49:00;;;;;;;15.85;10.40;;;;;;;12.18;97.02;101861.44;6156448;23;20017;-71
2022/07/23 03:51:25;;;;;;;11.75;9.65;;;;;;;12.12;96.69;101851.41;6156531;23;20008;-71
2022/07/23 03:53:51;;;;;;;14.13;10.18;;;;;;;12.17;96.53;101869.28;6157136;23;20023;-71
2022/07/23 03:56:16;;;;;;;14.48;10.48;;;;;;;12.14;96.56;101856.50;6130487;23;20009;-72
2022/07/23 03:58:41;;;;;;;16.38;10.93;;;;;;;12.14;96.82;101869.47;6157073;23;20001;-80
2022/07/23 04:01:07;;;;;;;13.82;11.43;;;;;;;12.13;97.08;101868.63;6156665;23;20305;-80
2022/07/23 04:03:32;;;;;;;13.65;11.35;;;;;;;12.16;97.19;101871.03;6157038;23;20037;-70
2022/07/23 04:05:57;;;;;;;17.10;10.30;;;;;;;12.15;96.67;101861.59;6156534;23;20387;-74
2022/07/23 04:08:23;;;;;;;13.77;10.70;;;;;;;12.19;97.05;101873.50;6156790;23;20424;-71
2022/07/23 04:10:48;;;;;;;15.10;11.55;;;;;;;11.97;96.74;101834.09;6156591;23;20006;-71
2022/07/23 04:13:13;;;;;;;12.60;10.52;;;;;;;12.24;96.91;101875.81;6156717;23;20001;-73
2022/07/23 04:15:39;;;;;;;14.70;11.07;;;;;;;12.24;96.75;101884.44;6156991;23;20037;-80
2022/07/23 04:18:04;;;;;;;15.75;11.02;;;;;;;12.25;97.09;101887.84;6156598;23;20482;-71
2022/07/23 04:20:30;;;;;;;15.13;11.40;;;;;;;12.22;96.89;101881.09;6156542;23;20328;-80
2022/07/23 04:22:55;;;;;;;15.23;10.18;;;;;;;12.29;96.73;101882.44;6156596;23;20008;-81
2022/07/23 04:25:20;;;;;;;15.23;11.50;;;;;;;12.35;97.01;101884.69;6156969;23;20060;-80
2022/07/23 04:27:45;;;;;;;13.90;10.55;;;;;;;12.40;97.14;101875.84;6156330;23;20013;-72
2022/07/23 04:30:11;;;;;;;15.10;11.27;;;;;;;12.51;97.99;101881.28;6156409;23;20092;-72
2022/07/23 04:32:36;;;;;;;15.38;11.15;;;;;;;12.52;97.13;101888.13;6156007;23;20071;-73
2022/07/23 04:35:02;;;;;;;13.13;10.68;;;;;;;12.57;96.88;101881.78;6156277;23;20008;-78
2022/07/23 04:37:27;;;;;;;14.15;11.55;;;;;;;12.66;97.28;101889.97;6156020;23;20012;-71
2022/07/23 04:39:53;;;;;;;14.10;11.38;;;;;;;12.71;96.85;101895.75;6156359;23;20005;-71
2022/07/23 04:42:18;;;;;;;12.13;10.27;;;;;;;12.75;96.62;101895.47;6156819;23;20037;-72
2022/07/23 04:44:44;;;;;;;17.00;11.95;;;;;;;12.80;97.68;101884.88;6156524;23;20025;-72
2022/07/23 04:47:10;;;;;;;14.05;11.18;;;;;;;12.84;97.02;101891.56;6156225;23;20009;-73
2022/07/23 04:49:35;;;;;;;15.40;10.77;;;;;;;12.78;96.72;101859.03;6156136;23;20085;-81
2022/07/23 04:52:01;;;;;;;13.98;10.63;;;;;;;12.99;96.67;101901.09;6156183;23;20005;-73
2022/07/23 04:54:26;;;;;;;15.40;11.70;;;;;;;13.12;97.44;101907.22;6156321;23;20002;-71
2022/07/23 04:56:52;;;;;;;13.60;11.43;;;;;;;13.18;96.15;101909.50;6156603;23;20110;-80
2022/07/23 04:59:17;;;;;;;17.58;11.38;;;;;;;13.14;96.46;101895.00;6156479;23;20798;-72
2022/07/23 05:01:43;;;;;;;17.00;12.07;;;;;;;13.28;96.72;101890.84;6156046;23;20006;-74
2022/07/23 05:04:08;;;;;;;16.33;12.00;;;;;;;13.25;96.67;101867.66;6129992;23;20157;-73
2022/07/23 05:06:33;;;;;;;18.55;11.40;;;;;;;13.52;95.94;101901.56;6156312;23;20020;-72
2022/07/23 05:08:59;;;;;;;14.85;12.85;;;;;;;13.56;95.79;101898.69;6156232;23;20012;-72
2022/07/23 05:11:24;;;;;;;16.70;10.43;;;;;;;13.69;95.24;101909.19;6156307;23;20029;-71
2022/07/23 05:13:49;;;;;;;16.15;11.82;;;;;;;13.82;95.46;101907.53;6129592;23;20436;-78
2022/07/23 05:16:14;;;;;;;10.90;6.90;;;;;;;14.75;96.06;101901.84;6155991;23;20535;-75
2022/07/23 05:18:40;;;;;;;10.77;8.13;;;;;;;15.45;91.72;101896.44;6156365;23;20346;-73
2022/07/23 05:21:05;;;;;;;10.02;7.07;;;;;;;16.06;88.04;101887.94;6156078;23;20084;-84
2022/07/23 05:23:30;;;;;;;11.10;7.00;;;;;;;16.85;85.22;101910.19;6156044;23;20006;-76
2022/07/23 05:25:56;;;;;;;10.27;5.90;;;;;;;17.54;82.42;101912.94;6156411;23;20002;-85
2022/07/23 05:28:22;;;;;;;8.65;6.00;;;;;;;18.21;78.43;101918.25;6155459;23;20418;-81
2022/07/23 05:30:47;;;;;;;10.48;7.30;;;;;;;18.70;74.88;101913.59;6156250;23;20001;-86
2022/07/23 05:33:12;;;;;;;9.77;7.00;;;;;;;19.16;72.83;101892.34;6156117;23;20001;-78
2022/07/23 05:35:38;;;;;;;9.57;5.97;;;;;;;19.99;70.01;101917.72;6155999;23;20006;-85
2022/07/23 05:38:03;;;;;;;8.63;6.32;;;;;;;20.68;66.97;101923.06;6155799;23;20332;-85
2022/07/23 05:40:29;;;;;;;10.02;6.93;;;;;;;20.99;64.19;101880.94;6155995;23;20019;-87
2022/07/23 05:42:54;;;;;;;9.02;7.70;;;;;;;21.92;61.76;101912.59;6156010;23;20006;-76
2022/07/23 05:45:19;;;;;;;9.68;6.75;;;;;;;22.30;60.18;101911.63;6155906;23;20033;-84
2022/07/23 05:47:49;;;;;;;10.95;8.10;;;;;;;22.68;59.62;101922.06;6155751;23;20017;-82
2022/07/23 05:50:15;;;;;;;9.82;5.20;;;;;;;23.04;57.35;101917.69;6155616;23;20009;-77
2022/07/23 05:52:41;;;;;;;10.13;7.00;;;;;;;23.35;56.26;101905.72;6154832;23;20522;-83
2022/07/23 05:55:08;;;;;;;9.13;6.53;;;;;;;23.93;54.20;101922.75;6155115;23;20470;-78
2022/07/23 05:57:33;;;;;;;8.23;5.72;;;;;;;24.38;53.29;101930.38;6155905;23;20052;-79
2022/07/23 05:59:58;;;;;;;11.57;7.55;;;;;;;24.62;52.28;101929.66;6155803;23;20412;-80
2022/07/23 06:02:24;;;;;;;7.57;6.00;;;;;;;25.18;50.10;101912.22;6155592;23;20033;-77
2022/07/23 06:04:49;;;;;;;7.32;6.10;;;;;;;25.27;50.41;101929.75;6155583;23;20363;-76
2022/07/23 06:07:14;;;;;;;10.02;5.78;;;;;;;25.16;49.99;101932.69;6155517;23;20381;-86
2022/07/23 06:09:40;;;;;;;8.57;6.13;;;;;;;24.80;50.61;101945.38;6153183;23;20088;-88
2022/07/23 06:12:05;;;;;;;8.40;5.35;;;;;;;24.89;49.88;101918.78;6155479;23;20009;-76
2022/07/23 06:14:31;;;;;;;8.32;6.25;;;;;;;24.75;50.50;101945.00;6155878;23;20133;-77
2022/07/23 06:16:56;;;;;;;10.18;6.20;;;;;;;24.50;50.77;101944.97;6155761;23;20009;-84
2022/07/23 06:19:21;;;;;;;7.80;5.07;;;;;;;24.93;50.47;101924.56;6155399;23;20009;-83
2022/07/23 06:21:47;;;;;;;13.25;5.45;;;;;;;25.83;49.03;101932.47;6155411;23;20006;-77
2022/07/23 06:24:12;;;;;;;9.85;6.40;;;;;;;26.29;47.52;101930.81;6155108;23;20001;-81
2022/07/23 06:26:37;;;;;;;7.63;4.55;;;;;;;26.63;46.46;101917.22;6155695;23;20008;-85
2022/07/23 06:29:03;;;;;;;8.30;5.53;;;;;;;27.18;44.22;101918.00;6129094;23;20132;-80
2022/07/23 06:31:28;;;;;;;8.32;3.85;;;;;;;27.53;43.44;101946.53;6154600;23;20101;-75
2022/07/23 06:33:54;;;;;;;7.72;5.00;;;;;;;27.78;42.29;101938.34;6153413;23;20008;-83
2022/07/23 06:36:19;;;;;;;7.78;4.15;;;;;;;27.83;42.07;101941.28;6154493;23;20017;-75
2022/07/23 06:38:44;;;;;;;7.85;4.47;;;;;;;27.59;41.94;101929.88;6154911;23;20005;-84
2022/07/23 06:41:10;;;;;;;4.75;3.58;;;;;;;27.88;42.85;101941.53;6155390;23;20059;-76
2022/07/23 06:43:35;;;;;;;9.30;5.15;;;;;;;28.28;40.28;101926.97;6155136;23;20012;-82
2022/07/23 06:46:00;;;;;;;7.45;3.75;;;;;;;28.29;41.10;101949.84;6155346;23;20005;-77
2022/07/23 06:48:26;;;;;;;8.63;4.57;;;;;;;28.59;40.01;101945.28;6155105;23;20017;-83
2022/07/23 06:50:52;;;;;;;8.05;4.90;;;;;;;28.51;39.13;101951.53;6155166;23;20009;-82
2022/07/23 06:53:17;;;;;;;6.80;4.18;;;;;;;28.01;40.44;101933.75;6154807;23;20301;-83
2022/07/23 06:55:43;;;;;;;9.30;4.85;;;;;;;27.94;39.98;101922.22;6154888;23;20013;-82
2022/07/23 06:58:09;;;;;;;7.65;3.65;;;;;;;28.04;39.93;101948.50;6154994;23;20012;-82
2022/07/23 07:00:35;;;;;;;8.55;4.38;;;;;;;28.40;40.06;101945.91;6154946;23;20486;-77
2022/07/23 07:03:01;;;;;;;8.85;4.97;;;;;;;28.87;39.47;101929.41;6155230;23;20005;-79
2022/07/23 07:05:27;;;;;;;7.65;4.28;;;;;;;29.34;38.82;101950.09;6155001;23;20006;-81
2022/07/23 07:07:54;;;;;;;8.23;4.55;;;;;;;29.29;37.85;101946.38;6154631;23;20005;-79
2022/07/23 07:10:20;;;;;;;10.20;5.13;;;;;;;29.55;37.42;101946.59;6155344;23;20332;-73
2022/07/23 07:12:46;;;;;;;12.05;4.20;;;;;;;29.66;36.83;101914.09;6155151;23;20012;-78
2022/07/23 07:15:11;;;;;;;7.53;4.80;;;;;;;30.32;36.32;101926.13;6154809;23;20377;-73
2022/07/23 07:17:37;;;;;;;8.68;4.28;;;;;;;30.10;35.53;101944.06;6155364;23;20272;-76
2022/07/23 07:20:03;;;;;;;7.43;3.25;;;;;;;29.61;37.07;101947.69;6154911;23;20002;-79
2022/07/23 07:22:28;;;;;;;6.22;3.53;;;;;;;29.48;36.78;101942.22;6154775;23;20009;-80
2022/07/23 07:24:53;;;;;;;4.68;3.03;;;;;;;29.14;36.99;101903.91;6154813;23;20100;-81
2022/07/23 07:27:19;;;;;;;6.50;3.95;;;;;;;28.73;36.88;101925.81;6154932;23;20089;-73
2022/07/23 07:29:44;;;;;;;7.10;3.35;;;;;;;29.03;37.19;101925.72;6154941;23;20002;-77
2022/07/23 07:32:09;;;;;;;6.88;2.88;;;;;;;29.10;37.40;101921.25;6154878;23;20068;-75
2022/07/23 07:34:35;;;;;;;7.18;3.50;;;;;;;29.32;36.49;101932.69;6155006;23;20005;-81
2022/07/23 07:37:00;;;;;;;8.00;3.70;;;;;;;29.59;37.44;101950.50;6154876;23;20048;-74
2022/07/23 07:39:25;;;;;;;5.63;3.30;;;;;;;29.32;36.56;101954.00;6154882;23;20104;-74
2022/07/23 07:41:51;;;;;;;7.43;3.83;;;;;;;27.17;39.02;101956.16;6154840;23;20498;-81
2022/07/23 07:44:16;;;;;;;6.93;3.75;;;;;;;25.35;42.90;101963.25;6155310;23;20012;-81
2022/07/23 07:46:41;;;;;;;6.32;3.72;;;;;;;23.87;47.35;101962.94;6155313;23;20006;-82
2022/07/23 07:49:07;;;;;;;6.18;2.70;;;;;;;23.41;49.69;101951.75;6154592;23;20010;-78
2022/07/23 07:51:32;;;;;;;6.45;3.70;;;;;;;22.95;51.12;101960.72;6155090;23;20012;-79
2022/07/23 07:53:58;;;;;;;8.13;3.78;;;;;;;22.61;53.99;101946.38;6155072;23;20301;-77
2022/07/23 07:56:23;;;;;;;10.48;3.60;;;;;;;22.33;54.50;101952.63;6154722;23;20084;-79
2022/07/23 07:58:48;;;;;;;7.97;3.90;;;;;;;22.08;54.97;101958.53;6127577;23;20037;-75
2022/07/23 08:01:14;;;;;;;7.18;3.30;;;;;;;21.96;54.69;101949.97;6154926;23;20009;-75
2022/07/23 08:03:39;;;;;;;7.68;3.72;;;;;;;21.91;54.67;101958.25;6154691;23;20002;-79
2022/07/23 08:06:04;;;;;;;5.45;2.47;;;;;;;21.80;54.13;101955.81;6154661;23;20491;-76
2022/07/23 08:08:30;;;;;;;6.07;3.08;;;;;;;21.38;55.85;101929.88;6154952;23;20064;-81
2022/07/23 08:10:55;;;;;;;6.78;3.70;;;;;;;21.54;55.89;101967.91;6154595;23;20002;-83
2022/07/23 08:13:20;;;;;;;11.10;5.30;;;;;;;21.21;54.42;101967.31;6155816;23;20058;-74
2022/07/23 08:15:46;;;;;;;8.63;4.00;;;;;;;21.16;56.95;101967.75;6156450;23;20017;-79
2022/07/23 08:18:11;;;;;;;6.13;3.53;;;;;;;21.18;58.61;101975.50;6156160;23;20423;-77
2022/07/23 08:20:36;;;;;;;7.30;3.53;;;;;;;21.20;56.45;101963.88;6156595;23;20012;-75
2022/07/23 08:23:08;;;;;;;7.15;4.05;;;;;;;21.28;56.13;101980.78;6156579;23;20001;-79
2022/07/23 08:25:34;;;;;;;8.80;4.43;;;;;;;21.28;55.83;101983.41;6155622;23;20379;-72
2022/07/23 08:28:01;;;;;;;6.80;3.30;;;;;;;21.31;57.20;101985.75;6156897;23;20002;-79
2022/07/23 08:30:27;;;;;;;7.78;4.80;;;;;;;21.31;56.04;101986.59;6156748;23;20408;-81
2022/07/23 08:32:54;;;;;;;7.80;4.10;;;;;;;21.29;57.15;101983.28;6155865;23;20060;-75
2022/07/23 08:35:25;;;;;;;9.10;4.82;;;;;;;21.24;56.99;101990.72;6156237;23;20010;-79
2022/07/23 08:37:50;;;;;;;;;;;;;;;21.21;56.88;101996.22;6155788;23;20083;-79
2022/07/23 08:40:16;;;;;;;10.65;5.35;;;;;;;21.03;58.28;101996.06;6156359;23;19909;-78
2022/07/23 08:42:42;;;;;;;10.98;5.07;;;;;;;21.02;59.80;101998.84;6156221;23;20012;-80
2022/07/23 08:45:09;;;;;;;8.35;5.00;;;;;;;21.21;57.20;102001.47;6155950;23;20025;-74
2022/07/23 08:47:37;;;;;;;8.35;4.43;;;;;;;21.53;57.51;102005.66;6155969;23;20040;-79
2022/07/23 08:50:03;;;;;;;7.85;4.22;;;;;;;21.67;56.74;101992.94;6156286;23;20010;-77
2022/07/23 08:52:30;;;;;;;11.68;4.03;;;;;;;21.81;55.64;101998.72;6156262;23;20001;-78
2022/07/23 08:54:56;;;;;;;4.85;3.33;;;;;;;21.94;56.07;102000.09;6155846;23;20006;-78
2022/07/23 08:57:22;;;;;;;7.10;5.13;;;;;;;21.92;54.22;101998.53;6156078;23;20009;-79
2022/07/23 08:59:47;;;;;;;7.15;3.53;;;;;;;22.17;55.15;102002.41;6155872;23;20024;-76
2022/07/23 09:02:12;;;;;;;10.13;4.88;;;;;;;22.42;53.01;101993.84;6156166;23;20093;-79
2022/07/23 09:04:37;;;;;;;7.80;5.07;;;;;;;22.20;54.02;101955.56;6156079;23;20002;-78
2022/07/23 09:07:03;;;;;;;8.10;5.10;;;;;;;22.45;54.69;101995.38;6156122;23;20005;-79
2022/07/23 09:09:30;;;;;;;7.47;4.25;;;;;;;22.20;55.01;101968.72;6156156;23;20005;-77
2022/07/23 09:12:07;;;;;;;4.60;3.33;;;;;;;22.35;55.32;101997.22;6156275;23;20420;-78
2022/07/23 09:14:41;;;;;;;7.93;5.20;;;;;;;22.00;51.95;101988.16;6155962;23;20075;-79
2022/07/23 09:17:11;;;;;;;6.85;4.35;;;;;;;21.82;55.24;101968.81;6155962;23;20412;-74
2022/07/23 09:19:36;;;;;;;6.80;4.53;;;;;;;21.89;53.48;101986.50;6155976;23;20081;-79
2022/07/23 09:22:20;;;;;;;6.55;4.00;;;;;;;21.77;55.13;101983.22;6153467;23;20055;-78
2022/07/23 09:25:07;;;;;;;7.40;4.38;;;;;;;21.81;54.52;101978.50;6155489;23;20039;-79
2022/07/23 09:27:55;;;;;;;7.38;5.05;;;;;;;21.83;54.84;101976.59;6155889;23;20470;-78
2022/07/23 09:30:27;;;;;;;8.75;4.30;;;;;;;21.99;54.64;101970.72;6129837;23;20032;-80
2022/07/23 09:33:09;;;;;;;10.50;4.55;;;;;;;21.94;55.30;101971.16;6155762;23;20006;-82
2022/07/23 09:35:55;;;;;;;8.18;4.45;;;;;;;22.09;56.45;101978.59;6155624;23;20013;-80
2022/07/23 09:38:23;;;;;;;6.07;3.78;;;;;;;22.13;54.41;101978.19;6155818;23;20192;-80
2022/07/23 09:41:08;;;;;;;6.60;3.72;;;;;;;22.13;53.98;101954.50;6155467;23;20001;-75
2022/07/23 09:43:34;;;;;;;7.32;4.63;;;;;;;22.02;51.86;101968.66;6156094;23;20001;-79
2022/07/23 09:46:18;;;;;;;7.68;4.30;;;;;;;21.93;54.10;101982.66;6156229;23;20024;-77
2022/07/23 09:48:44;;;;;;;7.30;4.15;;;;;;;21.94;55.12;101991.38;6155580;23;20048;-78
2022/07/23 09:51:09;;;;;;;7.60;4.07;;;;;;;21.86;53.79;101993.88;6155950;23;20009;-77
2022/07/23 09:53:35;;;;;;;8.82;5.20;;;;;;;21.58;52.48;102003.47;6155535;23;20036;-81
2022/07/23 09:56:01;;;;;;;8.63;4.88;;;;;;;21.45;51.94;101996.69;6155289;23;20009;-78
2022/07/23 09:58:27;;;;;;;8.07;4.10;;;;;;;21.52;53.86;101980.34;6155692;23;20001;-80
2022/07/23 10:00:53;;;;;;;5.75;3.63;;;;;;;21.76;53.29;101992.09;6155599;23;20081;-80
2022/07/23 10:03:19;;;;;;;7.38;4.78;;;;;;;21.77;52.39;101988.50;6155650;23;20037;-78
2022/07/23 10:05:45;;;;;;;7.30;4.07;;;;;;;21.88;56.00;101979.59;6155622;23;20068;-80
2022/07/23 10:08:12;;;;;;;6.90;3.90;;;;;;;22.00;55.77;101967.09;6155383;23;20009;-81
2022/07/23 10:10:39;;;;;;;8.82;5.90;;;;;;;22.16;52.43;101979.69;6155502;23;20008;-81
2022/07/23 10:15:36;;;;;;;10.75;6.45;;;;;;;21.98;55.36;101979.56;6166102;23;20017;-80
2022/07/23 10:18:02;;;;;;;6.13;3.97;;;;;;;21.93;55.71;101958.16;6155706;23;20044;-78
2022/07/23 10:20:28;;;;;;;9.73;6.28;;;;;;;21.85;54.00;101969.38;6129249;23;20001;-81
2022/07/23 10:23:22;;;;;;;9.98;5.55;;;;;;;21.84;54.91;101991.38;6155095;23;20017;-80
2022/07/23 10:25:56;;;;;;;7.18;5.10;;;;;;;21.84;54.44;101994.03;6155288;23;20006;-81
2022/07/23 10:28:24;;;;;;;8.10;4.95;;;;;;;21.86;55.71;101984.19;6155531;23;20490;-80
2022/07/23 10:31:28;;;;;;;7.05;4.93;;;;;;;22.00;55.63;101983.72;6155492;23;20465;-81
2022/07/23 10:34:11;;;;;;;8.80;5.47;;;;;;;21.90;55.81;101988.16;6134393;23;20009;-76
2022/07/23 10:36:46;;;;;;;9.05;5.50;;;;;;;21.89;55.30;101986.50;6155301;23;20056;-80
2022/07/23 10:39:20;;;;;;;8.63;5.07;;;;;;;22.13;57.19;101987.88;6155355;23;20028;-79
2022/07/23 10:41:45;;;;;;;9.65;5.32;;;;;;;22.40;56.20;101984.44;6155306;23;20001;-81
2022/07/23 10:44:20;;;;;;;7.20;4.68;;;;;;;22.39;55.15;101978.34;6155206;23;20080;-80
2022/07/23 10:47:22;;;;;;;11.13;6.53;;;;;;;22.55;54.36;101988.25;6155314;23;20008;-81
2022/07/23 10:49:41;;;;;;;7.95;5.60;;;;;;;22.59;53.74;101989.59;6153262;23;20049;-80
2022/07/23 10:52:20;;;;;;;8.77;5.72;;;;;;;22.50;52.52;101985.22;6154932;23;20033;-82
2022/07/23 10:55:27;;;;;;;6.65;5.10;;;;;;;22.45;51.54;101972.50;6155327;23;20008;-75
2022/07/23 10:57:52;;;;;;;8.48;5.55;;;;;;;22.48;52.43;101990.63;6036499;23;20311;-79
2022/07/23 11:00:23;;;;;;;6.50;4.68;;;;;;;22.55;53.49;101986.44;6036563;23;20022;-78
2022/07/23 11:02:54;;;;;;;9.05;4.75;;;;;;;22.53;54.10;101972.59;6036385;23;20011;-81
2022/07/23 11:05:20;;;;;;;;;;;;;;;22.59;53.32;101985.16;6036878;23;20357;-78
2022/07/23 11:08:03;;;;;;;8.50;5.90;;;;;;;22.65;53.85;101993.47;6036490;23;19954;-79
2022/07/23 11:10:50;;;;;;;8.52;5.10;;;;;;;22.85;53.03;101987.97;6036476;23;20015;-72
2022/07/23 11:13:21;;;;;;;7.32;5.28;;;;;;;22.90;51.78;101983.06;6036489;23;20383;-80
2022/07/23 11:16:04;;;;;;;7.35;4.82;;;;;;;22.87;51.41;101986.00;6036368;23;20044;-78
2022/07/23 11:18:46;;;;;;;6.03;4.10;;;;;;;22.76;50.42;101986.19;6036631;23;20008;-76
2022/07/23 11:21:23;;;;;;;7.82;4.22;;;;;;;22.73;52.04;101983.84;6036390;23;20089;-80
2022/07/23 11:24:06;;;;;;;9.40;4.30;;;;;;;22.74;51.91;101982.03;6036356;23;20334;-81